Time;durP1;ratioP1;P1;durP2;ratioP2;P2;SDS_P1;SDS_P2;PMS_P1;PMS_P2;Temp;Humidity;BMP_temperature;BMP_pressure;BME280_temperature;BME280_humidity;BME280_pressure;Samples;Min_cycle;Max_cycle;Signal;HPM_P1;HPM_P2
2021/06/17 00:01:27;;;;;;;45.87;33.57;;;18.10;99.90;;;;;;4973402;28;20233;-80
2021/06/17 00:03:54;;;;;;;47.37;34.83;;;17.90;99.90;;;;;;4969394;28;20249;-79
2021/06/17 00:06:21;;;;;;;49.77;33.10;;;17.90;99.90;;;;;;4966394;28;20600;-79
2021/06/17 00:08:48;;;;;;;50.17;33.00;;;17.90;99.90;;;;;;4966168;28;20206;-79
2021/06/17 00:11:15;;;;;;;46.93;34.23;;;17.90;99.90;;;;;;4961876;28;20696;-79
2021/06/17 00:13:42;;;;;;;51.80;32.53;;;17.90;99.90;;;;;;4972474;28;20226;-79
2021/06/17 00:16:10;;;;;;;46.10;33.50;;;17.90;99.90;;;;;;4969670;28;20199;-79
2021/06/17 00:18:39;;;;;;;44.80;33.17;;;17.90;99.90;;;;;;4955074;28;20258;-80
2021/06/17 00:21:07;;;;;;;48.33;32.97;;;17.90;99.90;;;;;;4955078;28;20626;-79
2021/06/17 00:23:35;;;;;;;49.83;32.33;;;17.90;99.90;;;;;;4972607;28;20226;-79
2021/06/17 00:26:02;;;;;;;45.03;32.23;;;17.80;99.90;;;;;;4961703;28;20273;-78
2021/06/17 00:28:29;;;;;;;45.03;32.67;;;17.90;99.90;;;;;;4970549;28;20226;-79
2021/06/17 00:30:57;;;;;;;42.37;31.43;;;17.80;99.90;;;;;;4973169;28;20288;-78
2021/06/17 00:33:24;;;;;;;48.10;32.67;;;17.80;99.90;;;;;;4967880;28;20195;-80
2021/06/17 00:35:52;;;;;;;48.57;32.90;;;17.80;99.90;;;;;;4955214;28;20241;-79
2021/06/17 00:38:19;;;;;;;50.27;32.90;;;17.80;99.90;;;;;;4963340;28;20298;-80
2021/06/17 00:40:46;;;;;;;50.10;33.43;;;17.90;99.90;;;;;;4972721;28;20340;-80
2021/06/17 00:43:13;;;;;;;49.77;34.07;;;17.80;99.90;;;;;;4969456;28;20234;-80
2021/06/17 00:45:44;;;;;;;48.93;33.23;;;17.80;99.90;;;;;;4959698;28;20241;-81
2021/06/17 00:48:12;;;;;;;52.63;35.43;;;17.80;99.90;;;;;;4972364;28;20254;-80
2021/06/17 00:50:43;;;;;;;59.13;37.10;;;17.80;99.90;;;;;;4959421;28;20258;-80
2021/06/17 00:53:13;;;;;;;58.23;36.27;;;17.80;99.90;;;;;;4959555;28;20744;-80
2021/06/17 00:55:42;;;;;;;57.37;36.40;;;17.90;99.90;;;;;;4968491;28;20286;-80
2021/06/17 00:58:10;;;;;;;56.80;36.63;;;17.80;99.90;;;;;;4952364;28;20230;-80
2021/06/17 01:00:37;;;;;;;58.63;37.53;;;17.80;99.90;;;;;;4968898;28;20310;-80
2021/06/17 01:03:05;;;;;;;63.17;38.27;;;17.70;99.90;;;;;;4958418;28;20230;-80
2021/06/17 01:05:32;;;;;;;61.30;37.33;;;17.70;99.90;;;;;;4954712;28;20707;-80
2021/06/17 01:08:15;;;;;;;63.97;37.30;;;17.70;99.90;;;;;;4937233;28;20253;-80
2021/06/17 01:10:52;;;;;;;59.87;36.67;;;17.70;99.90;;;;;;4959896;28;20290;-80
2021/06/17 01:13:24;;;;;;;62.13;37.27;;;17.70;99.90;;;;;;4952853;29;20236;-81
2021/06/17 01:15:58;;;;;;;72.20;38.80;;;17.60;99.90;;;;;;4953205;29;20230;-80
2021/06/17 01:18:26;;;;;;;67.20;38.30;;;17.60;99.90;;;;;;4953325;29;20261;-80
2021/06/17 01:20:56;;;;;;;75.80;39.03;;;17.50;99.90;;;;;;4936846;28;20269;-80
2021/06/17 01:23:49;;;;;;;76.50;39.30;;;17.50;99.90;;;;;;4953360;28;20372;-80
2021/06/17 01:26:20;;;;;;;79.03;38.80;;;17.50;99.90;;;;;;4965006;28;20206;-80
2021/06/17 01:28:52;;;;;;;79.00;38.80;;;17.40;99.90;;;;;;4972754;28;20297;-80
2021/06/17 01:31:22;;;;;;;73.97;37.50;;;17.40;99.90;;;;;;4972528;28;20257;-80
2021/06/17 01:33:51;;;;;;;81.07;39.37;;;17.30;99.90;;;;;;4969418;28;20209;-80
2021/06/17 01:36:22;;;;;;;86.33;38.80;;;17.30;99.90;;;;;;4960751;28;20370;-80
2021/06/17 01:38:53;;;;;;;90.60;39.60;;;17.20;99.90;;;;;;4965928;28;20207;-79
2021/06/17 01:41:22;;;;;;;88.13;41.10;;;17.20;99.90;;;;;;4956490;29;20313;-79
2021/06/17 01:43:51;;;;;;;87.20;40.23;;;17.10;99.90;;;;;;4956969;29;20258;-79
2021/06/17 01:46:19;;;;;;;89.10;39.87;;;17.20;99.90;;;;;;4956690;28;20207;-80
2021/06/17 01:48:51;;;;;;;90.37;40.43;;;17.20;99.90;;;;;;4975913;28;20246;-79
2021/06/17 01:51:22;;;;;;;94.20;40.23;;;17.20;99.90;;;;;;4966196;28;20269;-80
2021/06/17 01:53:50;;;;;;;92.80;40.00;;;17.20;99.90;;;;;;4971356;28;20282;-79
2021/06/17 01:56:20;;;;;;;96.83;40.83;;;17.20;99.90;;;;;;4965624;28;20289;-80
2021/06/17 01:58:51;;;;;;;93.50;39.97;;;17.20;99.90;;;;;;4976238;28;20202;-80
2021/06/17 02:01:19;;;;;;;94.23;40.43;;;17.20;99.90;;;;;;4958756;28;20309;-80
2021/06/17 02:03:48;;;;;;;92.70;40.90;;;17.20;99.90;;;;;;4968266;28;20235;-79
2021/06/17 02:06:16;;;;;;;99.40;41.57;;;17.20;99.90;;;;;;4967042;28;20304;-80
2021/06/17 02:08:46;;;;;;;102.53;41.93;;;17.10;99.90;;;;;;4974718;28;20257;-79
2021/06/17 02:11:15;;;;;;;97.53;41.30;;;17.20;99.90;;;;;;4969228;28;20232;-79
2021/06/17 02:13:43;;;;;;;99.83;41.83;;;17.20;99.90;;;;;;4956674;29;20290;-80
2021/06/17 02:16:12;;;;;;;99.67;40.60;;;17.20;99.90;;;;;;4956321;29;20238;-80
2021/06/17 02:18:40;;;;;;;88.83;38.90;;;17.30;99.90;;;;;;4964780;28;20233;-79
2021/06/17 02:21:09;;;;;;;93.13;39.83;;;17.20;99.90;;;;;;4975579;28;20318;-79
2021/06/17 02:23:38;;;;;;;97.30;39.77;;;17.10;99.90;;;;;;4973330;28;20206;-80
2021/06/17 02:26:07;;;;;;;91.67;39.37;;;17.20;99.90;;;;;;4970963;28;20190;-79
2021/06/17 02:28:41;;;;;;;94.10;39.37;;;17.20;99.90;;;;;;4974271;28;20206;-79
2021/06/17 02:31:11;;;;;;;95.93;39.57;;;17.20;99.90;;;;;;4975517;28;20234;-80
2021/06/17 02:33:39;;;;;;;93.13;38.90;;;17.20;99.90;;;;;;4975477;28;20234;-80
2021/06/17 02:36:07;;;;;;;96.87;40.60;;;17.30;99.90;;;;;;4962095;28;20288;-79
2021/06/17 02:38:36;;;;;;;92.60;38.60;;;17.30;99.90;;;;;;4955479;29;20703;-79
2021/06/17 02:41:06;;;;;;;92.13;39.57;;;17.30;99.90;;;;;;4967469;28;20259;-79
2021/06/17 02:43:36;;;;;;;95.40;38.47;;;17.30;99.90;;;;;;4954460;28;20225;-79
2021/06/17 02:46:04;;;;;;;97.40;36.83;;;17.30;99.90;;;;;;4964472;28;20289;-80
2021/06/17 02:48:33;;;;;;;96.43;37.70;;;17.30;99.90;;;;;;4973778;28;20352;-79
2021/06/17 02:51:00;;;;;;;99.03;36.70;;;17.20;99.90;;;;;;4969954;28;20313;-80
2021/06/17 02:53:27;;;;;;;102.40;38.87;;;17.20;99.90;;;;;;4974925;28;20297;-79
2021/06/17 02:55:54;;;;;;;109.63;39.83;;;17.10;99.90;;;;;;4973900;28;20202;-80
2021/06/17 02:58:47;;;;;;;103.13;37.57;;;17.20;99.90;;;;;;4968492;28;20254;-79
2021/06/17 03:01:21;;;;;;;119.37;39.53;;;17.10;99.90;;;;;;4968268;28;20262;-79
2021/06/17 03:03:53;;;;;;;117.87;41.30;;;17.10;99.90;;;;;;4957177;28;20234;-79
2021/06/17 03:06:25;;;;;;;117.77;41.03;;;17.10;99.90;;;;;;4974372;28;20234;-80
2021/06/17 03:08:56;;;;;;;113.87;39.93;;;17.20;99.90;;;;;;4974375;28;20755;-80
2021/06/17 03:11:26;;;;;;;107.27;39.07;;;17.20;99.90;;;;;;4974707;28;20199;-79
2021/06/17 03:13:57;;;;;;;108.97;39.37;;;17.20;99.90;;;;;;4972112;28;20234;-79
2021/06/17 03:16:28;;;;;;;107.07;39.63;;;17.30;99.90;;;;;;4967608;28;20202;-80
2021/06/17 03:18:59;;;;;;;111.37;40.17;;;17.30;99.90;;;;;;4964931;28;20697;-79
2021/06/17 03:21:29;;;;;;;113.73;39.27;;;17.30;99.90;;;;;;4966959;28;20253;-80
2021/06/17 03:23:57;;;;;;;105.27;38.43;;;17.30;99.90;;;;;;4973975;28;20199;-79
2021/06/17 03:26:26;;;;;;;113.23;40.43;;;17.30;99.90;;;;;;4973153;28;20226;-80
2021/06/17 03:28:55;;;;;;;110.07;40.03;;;17.30;99.90;;;;;;4973738;28;20233;-79
2021/06/17 03:31:23;;;;;;;111.63;39.30;;;17.40;99.90;;;;;;4974361;28;20205;-79
2021/06/17 03:33:52;;;;;;;113.80;40.63;;;17.30;99.90;;;;;;4974467;28;20286;-80
2021/06/17 03:36:22;;;;;;;109.93;40.07;;;17.30;99.90;;;;;;4969444;28;20768;-80
2021/06/17 03:38:50;;;;;;;107.67;40.40;;;17.30;99.90;;;;;;4968011;28;20230;-80
2021/06/17 03:41:18;;;;;;;110.20;39.63;;;17.30;99.90;;;;;;4973562;28;20266;-79
2021/06/17 03:43:47;;;;;;;117.53;40.00;;;17.30;99.90;;;;;;4974461;28;20234;-79
2021/06/17 03:46:16;;;;;;;111.10;40.30;;;17.30;99.90;;;;;;4973499;28;20257;-79
2021/06/17 03:48:43;;;;;;;116.17;39.90;;;17.30;99.90;;;;;;4955013;29;20602;-79
2021/06/17 03:51:13;;;;;;;126.07;41.13;;;17.30;99.90;;;;;;4958369;28;20614;-79
2021/06/17 03:53:44;;;;;;;114.00;40.57;;;17.20;99.90;;;;;;4958529;28;20639;-79
2021/06/17 03:56:13;;;;;;;118.43;40.57;;;17.20;99.90;;;;;;4974040;28;20245;-79
2021/06/17 03:58:42;;;;;;;121.80;41.47;;;17.10;99.90;;;;;;4969031;28;20297;-80
2021/06/17 04:01:10;;;;;;;127.03;41.90;;;17.20;99.90;;;;;;4966411;28;20305;-79
2021/06/17 04:03:38;;;;;;;120.00;42.17;;;17.20;99.90;;;;;;4955519;28;20211;-80
2021/06/17 04:06:07;;;;;;;116.97;40.60;;;17.20;99.90;;;;;;4972538;28;20257;-80
2021/06/17 04:08:38;;;;;;;116.10;40.97;;;17.20;99.90;;;;;;4973482;28;20202;-80
2021/06/17 04:11:08;;;;;;;120.50;40.53;;;17.20;99.90;;;;;;4973750;28;20213;-79
2021/06/17 04:13:39;;;;;;;124.23;42.87;;;17.20;99.90;;;;;;4972877;28;20700;-79
2021/06/17 04:16:07;;;;;;;113.60;42.40;;;17.30;99.90;;;;;;4973554;28;20206;-79
2021/06/17 04:18:36;;;;;;;128.33;43.37;;;17.20;99.90;;;;;;4972907;28;20238;-80
2021/06/17 04:21:04;;;;;;;131.37;43.23;;;17.20;99.90;;;;;;4962049;28;20312;-80
2021/06/17 04:23:32;;;;;;;128.27;42.53;;;17.10;99.90;;;;;;4967291;28;20245;-80
2021/06/17 04:26:01;;;;;;;117.60;41.03;;;17.20;99.90;;;;;;4954503;29;20246;-80
2021/06/17 04:28:31;;;;;;;123.50;43.00;;;17.20;99.90;;;;;;4966207;28;20237;-80
2021/06/17 04:30:59;;;;;;;124.30;43.13;;;17.30;99.90;;;;;;4973907;28;20289;-80
2021/06/17 04:33:26;;;;;;;122.97;41.83;;;17.30;99.90;;;;;;4966355;28;20265;-80
2021/06/17 04:35:58;;;;;;;124.93;43.10;;;17.40;99.90;;;;;;4953741;29;20285;-80
2021/06/17 04:38:26;;;;;;;125.53;43.00;;;17.40;99.90;;;;;;4969731;28;20202;-80
2021/06/17 04:40:53;;;;;;;123.50;42.67;;;17.40;99.90;;;;;;4971768;28;20613;-79
2021/06/17 04:43:23;;;;;;;116.80;41.73;;;17.30;99.90;;;;;;4970315;28;20751;-79
2021/06/17 04:45:53;;;;;;;128.03;45.90;;;17.30;99.90;;;;;;4973159;28;20225;-80
2021/06/17 04:48:23;;;;;;;120.73;42.03;;;17.40;99.90;;;;;;4965106;28;20309;-80
2021/06/17 04:50:50;;;;;;;138.57;46.03;;;17.40;99.90;;;;;;4953079;28;20226;-79
2021/06/17 04:53:18;;;;;;;123.53;43.97;;;17.40;99.90;;;;;;4954093;29;20207;-80
2021/06/17 04:55:48;;;;;;;140.33;44.27;;;17.40;99.90;;;;;;4953596;29;20210;-80
2021/06/17 04:58:16;;;;;;;130.57;44.87;;;17.40;99.90;;;;;;4962157;28;20628;-79
2021/06/17 05:00:43;;;;;;;137.90;46.17;;;17.30;99.90;;;;;;4966536;28;20669;-80
2021/06/17 05:03:11;;;;;;;142.13;47.00;;;17.40;99.90;;;;;;4967024;28;20687;-81
2021/06/17 05:05:38;;;;;;;139.40;46.13;;;17.40;99.90;;;;;;4972206;28;20734;-83
2021/06/17 05:10:52;;;;;;;140.80;46.53;;;17.50;99.90;;;;;;4970387;28;20221;-87
2021/06/17 05:13:20;;;;;;;139.73;47.57;;;17.40;99.90;;;;;;4966486;28;20564;-87
2021/06/17 05:15:48;;;;;;;138.50;47.97;;;17.40;99.90;;;;;;4972912;28;20215;-87
2021/06/17 05:18:18;;;;;;;133.43;48.67;;;17.40;99.90;;;;;;4973228;28;20297;-87
2021/06/17 05:20:45;;;;;;;131.87;47.90;;;17.30;99.90;;;;;;4972845;28;20298;-87
2021/06/17 05:23:16;;;;;;;124.90;47.27;;;17.30;99.90;;;;;;4967201;28;20254;-88
2021/06/17 05:25:43;;;;;;;130.63;47.27;;;17.30;99.90;;;;;;4962371;28;20214;-78
2021/06/17 05:28:13;;;;;;;118.70;45.83;;;17.30;99.90;;;;;;4971489;28;20284;-80
2021/06/17 05:30:40;;;;;;;116.10;44.73;;;17.20;99.90;;;;;;4972176;28;20253;-79
2021/06/17 05:33:07;;;;;;;113.67;43.13;;;17.20;99.90;;;;;;4972003;28;20296;-79
2021/06/17 05:35:35;;;;;;;117.47;43.50;;;17.20;99.90;;;;;;4966863;28;20234;-79
2021/06/17 05:38:04;;;;;;;113.97;43.17;;;17.10;99.90;;;;;;4963012;28;20203;-79
2021/06/17 05:40:31;;;;;;;118.17;44.93;;;17.20;99.90;;;;;;4968430;28;20286;-79
2021/06/17 05:42:59;;;;;;;114.73;42.73;;;17.20;99.90;;;;;;4965708;28;20386;-79
2021/06/17 05:45:26;;;;;;;113.73;43.37;;;17.20;99.90;;;;;;4957026;28;20238;-78
2021/06/17 05:47:52;;;;;;;106.43;41.87;;;17.10;99.90;;;;;;4953823;28;20243;-79
2021/06/17 05:50:19;;;;;;;115.43;43.47;;;17.20;99.90;;;;;;4958517;28;20662;-79
2021/06/17 05:52:48;;;;;;;105.53;40.37;;;17.20;99.90;;;;;;4955896;28;20278;-79
2021/06/17 05:55:17;;;;;;;96.33;38.43;;;17.10;99.90;;;;;;4959885;28;20286;-79
2021/06/17 05:57:44;;;;;;;86.93;36.67;;;17.20;99.90;;;;;;4964692;28;20203;-81
2021/06/17 06:00:12;;;;;;;79.37;34.10;;;17.20;99.90;;;;;;4944146;28;20198;-83
2021/06/17 06:02:39;;;;;;;80.27;33.53;;;17.10;99.90;;;;;;4967136;28;20313;-83
2021/06/17 06:05:07;;;;;;;81.00;34.27;;;17.00;99.90;;;;;;4958442;28;20198;-82
2021/06/17 06:07:34;;;;;;;79.70;34.53;;;17.00;99.90;;;;;;4962333;28;20211;-82
2021/06/17 06:10:03;;;;;;;84.50;33.67;;;17.00;99.90;;;;;;4952276;28;20286;-83
2021/06/17 06:12:30;;;;;;;79.33;32.67;;;17.00;99.90;;;;;;4952569;28;20290;-82
2021/06/17 06:14:57;;;;;;;77.17;32.47;;;17.10;99.90;;;;;;4953889;28;20231;-82
2021/06/17 06:17:24;;;;;;;73.60;31.70;;;17.20;99.90;;;;;;4952126;28;20242;-83
2021/06/17 06:19:51;;;;;;;73.07;31.30;;;17.20;99.90;;;;;;4959135;28;20257;-82
2021/06/17 06:22:18;;;;;;;72.77;31.70;;;17.30;99.90;;;;;;4972179;28;20265;-82
2021/06/17 06:24:47;;;;;;;72.57;31.07;;;17.30;99.90;;;;;;4974792;28;20230;-83
2021/06/17 06:27:15;;;;;;;74.93;30.43;;;17.40;99.90;;;;;;4965770;28;20205;-82
2021/06/17 06:29:42;;;;;;;66.67;30.03;;;17.50;99.90;;;;;;4961100;28;20226;-83
2021/06/17 06:32:10;;;;;;;67.27;30.90;;;17.50;99.90;;;;;;4974222;28;20277;-83
2021/06/17 06:34:37;;;;;;;68.03;30.07;;;17.50;99.90;;;;;;4964837;28;20251;-83
2021/06/17 06:37:05;;;;;;;64.97;29.73;;;17.50;99.90;;;;;;4965342;28;20257;-83
2021/06/17 06:39:32;;;;;;;67.60;31.57;;;17.60;99.90;;;;;;4963488;28;20255;-80
2021/06/17 06:41:59;;;;;;;73.80;32.20;;;17.60;99.90;;;;;;4963789;28;20309;-80
2021/06/17 06:44:28;;;;;;;72.97;33.07;;;17.60;99.90;;;;;;4962031;28;20242;-81
2021/06/17 06:46:56;;;;;;;72.70;33.03;;;17.60;99.90;;;;;;4974283;28;20206;-79
2021/06/17 06:49:23;;;;;;;71.77;33.80;;;17.70;99.90;;;;;;4969961;28;20297;-80
2021/06/17 06:51:50;;;;;;;68.60;31.73;;;17.80;99.90;;;;;;4959879;28;20662;-79
2021/06/17 06:54:19;;;;;;;72.43;31.37;;;17.70;99.90;;;;;;4972132;28;20212;-78
2021/06/17 06:56:47;;;;;;;70.87;32.13;;;17.90;99.90;;;;;;4966512;28;20657;-79
2021/06/17 06:59:15;;;;;;;70.60;32.93;;;17.90;99.90;;;;;;4965490;28;20198;-83
2021/06/17 07:01:46;;;;;;;76.37;34.37;;;17.80;99.90;;;;;;4966003;28;20310;-83
2021/06/17 07:04:13;;;;;;;72.63;32.93;;;17.80;99.90;;;;;;4972360;28;20289;-83
2021/06/17 07:06:54;;;;;;;79.83;36.03;;;17.90;99.90;;;;;;4964746;28;20294;-83
2021/06/17 07:09:21;;;;;;;76.87;34.13;;;18.00;99.90;;;;;;4970374;28;20282;-83
2021/06/17 07:11:48;;;;;;;78.23;35.70;;;18.00;99.90;;;;;;4972908;28;20742;-83
2021/06/17 07:14:16;;;;;;;87.10;36.40;;;18.20;99.90;;;;;;4966957;28;20202;-84
2021/06/17 07:16:44;;;;;;;72.50;34.97;;;18.60;99.90;;;;;;4957342;28;20622;-83
2021/06/17 07:19:11;;;;;;;72.53;35.60;;;18.60;99.90;;;;;;4955239;28;20226;-84
2021/06/17 07:21:39;;;;;;;74.45;35.20;;;18.60;99.90;;;;;;4963036;28;20701;-84
2021/06/17 07:24:07;;;;;;;78.77;37.00;;;18.50;99.90;;;;;;4964583;28;20200;-83
2021/06/17 07:26:34;;;;;;;77.90;35.53;;;18.20;99.90;;;;;;4958035;28;20628;-83
2021/06/17 07:29:01;;;;;;;76.63;36.40;;;18.10;99.90;;;;;;4959989;28;20626;-83
2021/06/17 07:31:28;;;;;;;78.93;37.27;;;18.00;99.90;;;;;;4968641;28;20274;-83
2021/06/17 07:33:56;;;;;;;74.50;35.53;;;18.10;99.90;;;;;;4971849;28;20652;-84
2021/06/17 07:36:24;;;;;;;72.70;35.80;;;18.40;99.90;;;;;;4969118;28;20226;-83
2021/06/17 07:38:51;;;;;;;69.17;35.67;;;18.50;99.90;;;;;;4958406;28;20234;-83
2021/06/17 07:41:18;;;;;;;73.57;35.40;;;18.50;99.90;;;;;;4964771;28;20244;-82
2021/06/17 07:43:45;;;;;;;71.72;36.97;;;18.40;99.90;;;;;;4957497;28;20314;-83
2021/06/17 07:46:12;;;;;;;76.53;36.88;;;18.40;99.90;;;;;;4964301;28;20298;-83
2021/06/17 07:48:39;;;;;;;72.28;36.03;;;18.40;99.90;;;;;;4977138;28;20262;-82
2021/06/17 07:51:09;;;;;;;74.23;36.73;;;18.30;99.90;;;;;;4963540;28;20325;-82
2021/06/17 07:53:36;;;;;;;76.22;36.28;;;18.30;99.90;;;;;;4966612;28;20272;-81
2021/06/17 07:56:04;;;;;;;79.53;37.10;;;18.30;99.90;;;;;;4965589;28;20202;-83
2021/06/17 07:58:31;;;;;;;76.32;37.28;;;18.40;99.90;;;;;;4957259;28;20233;-79
2021/06/17 08:00:58;;;;;;;82.55;36.67;;;18.40;99.90;;;;;;4967414;28;20261;-80
2021/06/17 08:03:25;;;;;;;85.43;37.53;;;18.40;99.90;;;;;;4969895;28;20326;-80
2021/06/17 08:05:52;;;;;;;88.55;38.00;;;18.40;99.90;;;;;;4958923;28;20293;-80
2021/06/17 08:08:21;;;;;;;100.82;40.72;;;18.30;99.90;;;;;;4970492;28;20585;-80
2021/06/17 08:10:48;;;;;;;84.72;38.05;;;18.50;99.90;;;;;;4961561;28;20749;-80
2021/06/17 08:13:15;;;;;;;82.18;37.13;;;18.60;99.90;;;;;;4965895;28;20278;-80
2021/06/17 08:15:42;;;;;;;76.68;35.28;;;18.80;99.90;;;;;;4967895;28;20397;-80
2021/06/17 08:18:09;;;;;;;69.53;33.88;;;19.00;99.90;;;;;;4969611;28;20202;-80
2021/06/17 08:20:36;;;;;;;83.95;36.03;;;19.10;99.90;;;;;;4960002;28;20321;-80
2021/06/17 08:23:04;;;;;;;81.95;35.80;;;19.00;99.90;;;;;;4961698;28;20305;-80
2021/06/17 08:25:33;;;;;;;92.35;37.72;;;19.10;99.90;;;;;;4967939;28;20297;-80
2021/06/17 08:28:04;;;;;;;105.00;41.45;;;19.10;99.90;;;;;;4968894;28;20734;-80
2021/06/17 08:30:33;;;;;;;147.27;55.33;;;19.20;99.90;;;;;;4959522;28;20210;-80
2021/06/17 08:33:00;;;;;;;148.43;50.08;;;19.40;99.90;;;;;;4955237;28;20199;-80
2021/06/17 08:35:27;;;;;;;135.88;48.30;;;19.40;99.90;;;;;;4964561;28;20226;-81
2021/06/17 08:37:55;;;;;;;103.40;41.92;;;19.40;99.90;;;;;;4967785;28;20311;-80
2021/06/17 08:40:25;;;;;;;90.72;37.78;;;19.50;99.90;;;;;;4969417;28;20260;-80
2021/06/17 08:42:54;;;;;;;69.97;31.95;;;19.50;99.90;;;;;;4960978;28;20626;-80
2021/06/17 08:45:21;;;;;;;59.20;29.67;;;19.60;99.90;;;;;;4960617;28;20245;-81
2021/06/17 08:47:48;;;;;;;69.10;31.42;;;19.70;99.90;;;;;;4970568;28;20300;-80
2021/06/17 08:50:16;;;;;;;64.35;32.33;;;19.90;99.90;;;;;;4965554;28;20286;-80
2021/06/17 08:52:46;;;;;;;58.90;28.63;;;20.10;99.90;;;;;;4967068;28;20203;-80
2021/06/17 08:55:15;;;;;;;57.42;30.00;;;20.40;99.90;;;;;;4968659;28;20289;-80
2021/06/17 08:57:43;;;;;;;57.90;29.48;;;20.90;99.90;;;;;;4959928;28;20238;-80
2021/06/17 09:00:32;;;;;;;62.47;31.15;;;21.40;99.90;;;;;;4967109;28;20237;-80
2021/06/17 09:03:01;;;;;;;63.10;30.38;;;21.40;99.90;;;;;;4962172;28;20778;-80
2021/06/17 09:05:30;;;;;;;64.38;31.10;;;21.40;99.90;;;;;;4970311;28;20203;-80
2021/06/17 09:07:58;;;;;;;63.38;31.65;;;21.80;99.90;;;;;;4968225;28;20588;-81
2021/06/17 09:10:25;;;;;;;50.75;25.60;;;21.80;99.90;;;;;;4967131;28;20226;-81
2021/06/17 09:12:54;;;;;;;49.40;24.88;;;21.40;99.90;;;;;;4958511;28;20575;-81
2021/06/17 09:15:38;;;;;;;47.70;24.80;;;21.00;99.90;;;;;;4962822;28;20293;-80
2021/06/17 09:18:10;;;;;;;43.55;23.58;;;21.20;99.90;;;;;;4972658;28;20202;-80
2021/06/17 09:20:37;;;;;;;49.58;25.58;;;21.60;99.90;;;;;;4966756;28;20226;-79
2021/06/17 09:23:26;;;;;;;48.50;24.15;;;22.00;99.90;;;;;;4976068;28;20254;-79
2021/06/17 09:25:54;;;;;;;46.97;25.33;;;22.40;99.90;;;;;;4973704;28;20764;-79
2021/06/17 09:28:21;;;;;;;42.55;24.02;;;23.00;99.90;;;;;;4968066;28;20240;-80
2021/06/17 09:30:50;;;;;;;43.50;23.80;;;23.80;99.90;;;;;;4964274;28;20241;-80
2021/06/17 09:33:18;;;;;;;40.15;23.10;;;23.50;99.90;;;;;;4963000;28;20289;-79
2021/06/17 09:35:57;;;;;;;40.30;23.52;;;22.60;99.90;;;;;;4970260;28;20230;-79
2021/06/17 09:38:25;;;;;;;37.97;22.33;;;22.20;99.90;;;;;;4954478;28;20249;-79
2021/06/17 09:40:53;;;;;;;40.03;23.30;;;22.20;99.90;;;;;;4965144;28;20538;-79
2021/06/17 09:43:23;;;;;;;38.13;20.92;;;21.70;99.90;;;;;;4962273;28;20250;-79
2021/06/17 09:45:59;;;;;;;33.30;19.35;;;21.40;99.90;;;;;;4971778;28;20208;-79
2021/06/17 09:48:36;;;;;;;32.35;18.42;;;21.20;99.90;;;;;;4971657;28;20245;-80
2021/06/17 09:51:23;;;;;;;34.22;18.30;;;21.00;99.90;;;;;;4970041;28;20309;-80
2021/06/17 09:53:50;;;;;;;31.90;19.33;;;20.70;99.90;;;;;;4962068;28;20315;-79
2021/06/17 09:56:18;;;;;;;27.40;16.48;;;20.50;99.90;;;;;;4959225;28;20630;-79
2021/06/17 09:58:45;;;;;;;24.48;15.15;;;20.40;99.90;;;;;;4971714;28;20246;-80
2021/06/17 10:01:15;;;;;;;19.30;13.75;;;20.00;99.90;;;;;;4966132;28;20195;-79
2021/06/17 10:03:42;;;;;;;19.92;12.68;;;20.10;99.90;;;;;;4973595;28;20213;-79
2021/06/17 10:06:19;;;;;;;19.45;13.05;;;20.00;99.90;;;;;;4967828;28;20270;-79
2021/06/17 10:08:47;;;;;;;20.23;12.70;;;20.10;99.90;;;;;;4964840;28;20209;-80
2021/06/17 10:11:15;;;;;;;18.55;12.05;;;20.30;99.90;;;;;;4966799;28;20633;-79
2021/06/17 10:13:42;;;;;;;17.77;12.57;;;20.50;99.90;;;;;;4969309;28;20210;-79
2021/06/17 10:16:09;;;;;;;17.73;11.77;;;20.50;99.90;;;;;;4963641;28;20223;-80
2021/06/17 10:18:41;;;;;;;17.35;11.43;;;21.10;99.90;;;;;;4975509;28;20233;-79
2021/06/17 10:21:12;;;;;;;16.88;11.65;;;20.90;99.90;;;;;;4970752;28;20261;-79
2021/06/17 10:23:39;;;;;;;17.95;11.25;;;20.80;99.90;;;;;;4971594;28;20618;-80
2021/06/17 10:26:06;;;;;;;16.77;10.95;;;20.90;99.90;;;;;;4958010;28;20238;-80
2021/06/17 10:28:44;;;;;;;18.13;11.30;;;21.10;99.90;;;;;;4963658;28;20229;-80
2021/06/17 10:31:12;;;;;;;13.85;9.35;;;21.10;99.90;;;;;;4961215;28;20661;-81
2021/06/17 10:33:41;;;;;;;16.75;10.60;;;21.50;99.90;;;;;;4966940;28;20195;-81
2021/06/17 10:36:25;;;;;;;13.93;9.63;;;22.20;99.90;;;;;;4963917;28;20290;-81
2021/06/17 10:39:19;;;;;;;14.68;9.68;;;22.70;99.90;;;;;;4970987;28;20202;-80
2021/06/17 10:42:13;;;;;;;17.20;10.82;;;23.20;99.90;;;;;;4969668;28;20732;-81
2021/06/17 10:44:54;;;;;;;13.55;9.88;;;24.10;99.90;;;;;;4955283;28;20657;-81
2021/06/17 10:48:01;;;;;;;15.10;10.70;;;24.10;99.90;;;;;;4972591;28;20588;-81
2021/06/17 10:50:51;;;;;;;16.92;10.63;;;24.60;99.90;;;;;;4962606;28;20225;-82
2021/06/17 10:53:25;;;;;;;14.20;10.57;;;24.90;99.90;;;;;;4962106;28;20758;-81
2021/06/17 10:55:55;;;;;;;16.45;10.82;;;24.90;99.90;;;;;;4965222;28;20233;-82
2021/06/17 10:58:54;;;;;;;16.67;11.02;;;25.60;99.90;;;;;;4963171;28;20281;-81
2021/06/17 11:01:23;;;;;;;14.38;10.02;;;26.30;99.90;;;;;;4959737;28;20553;-82
2021/06/17 11:04:00;;;;;;;15.25;10.65;;;27.80;99.90;;;;;;4960852;28;20247;-82
2021/06/17 11:07:00;;;;;;;13.23;10.10;;;29.30;99.90;;;;;;4957687;28;20684;-82
2021/06/17 11:09:44;;;;;;;13.60;10.18;;;28.80;99.90;;;;;;4969885;28;20198;-83
2021/06/17 11:12:42;;;;;;;14.73;9.68;;;26.20;99.90;;;;;;4961160;28;20227;-82
2021/06/17 11:15:11;;;;;;;14.35;10.73;;;25.40;99.90;;;;;;4954718;28;20198;-82
2021/06/17 11:17:45;;;;;;;12.45;9.27;;;24.60;99.90;;;;;;4972396;28;20266;-83
2021/06/17 11:20:16;;;;;;;15.40;10.00;;;24.20;99.90;;;;;;4962692;28;20195;-82
2021/06/17 11:22:44;;;;;;;10.98;8.32;;;24.20;99.90;;;;;;4966045;28;20209;-82
2021/06/17 11:25:18;;;;;;;11.73;8.27;;;23.90;99.90;;;;;;4965829;28;20242;-82
2021/06/17 11:27:59;;;;;;;10.48;7.28;;;24.20;99.90;;;;;;4966989;28;20230;-82
2021/06/17 11:31:08;;;;;;;12.40;8.32;;;23.90;99.90;;;;;;4957567;28;20298;-82
2021/06/17 11:33:46;;;;;;;11.10;7.97;;;22.90;99.90;;;;;;4957252;28;20720;-82
2021/06/17 11:36:18;;;;;;;12.25;9.02;;;22.50;99.90;;;;;;4969237;28;20214;-81
2021/06/17 11:38:49;;;;;;;11.63;10.43;;;22.40;99.90;;;;;;4968857;28;20290;-80
2021/06/17 11:41:31;;;;;;;11.05;9.70;;;22.40;99.90;;;;;;4968358;28;20209;-80
2021/06/17 11:44:01;;;;;;;12.55;10.38;;;22.40;99.90;;;;;;4959396;28;20223;-80
2021/06/17 11:46:38;;;;;;;10.45;9.23;;;21.60;99.90;;;;;;4970324;28;20237;-80
2021/06/17 11:49:07;;;;;;;11.48;9.27;;;22.00;99.90;;;;;;4964564;28;20231;-80
2021/06/17 11:51:45;;;;;;;10.88;8.20;;;21.60;99.90;;;;;;4964090;28;20323;-80
2021/06/17 11:54:20;;;;;;;9.57;6.70;;;21.70;99.90;;;;;;4954746;28;20270;-80
2021/06/17 11:56:49;;;;;;;8.85;7.22;;;21.30;99.90;;;;;;4964991;28;20212;-79
2021/06/17 11:59:21;;;;;;;10.55;6.90;;;21.20;99.90;;;;;;4961003;28;20704;-80
2021/06/17 12:02:13;;;;;;;9.48;6.72;;;21.70;99.90;;;;;;4968032;28;20253;-80
2021/06/17 12:04:48;;;;;;;9.07;6.93;;;22.00;99.90;;;;;;4962839;28;20218;-80
2021/06/17 12:07:16;;;;;;;8.45;6.10;;;22.90;99.90;;;;;;4960161;28;20256;-80
2021/06/17 12:09:45;;;;;;;8.60;6.07;;;22.80;99.90;;;;;;4969468;28;20202;-81
2021/06/17 12:12:15;;;;;;;10.65;7.15;;;22.30;99.90;;;;;;4964265;28;20202;-81
2021/06/17 12:14:42;;;;;;;9.63;7.13;;;21.90;99.90;;;;;;4965603;28;20207;-81
2021/06/17 12:17:10;;;;;;;9.00;7.05;;;21.90;99.90;;;;;;4966813;28;20194;-80
2021/06/17 12:19:37;;;;;;;9.93;7.40;;;22.20;99.90;;;;;;4957753;28;20203;-81
2021/06/17 12:22:08;;;;;;;8.68;6.95;;;22.70;99.90;;;;;;4962475;28;20218;-81
2021/06/17 12:24:35;;;;;;;9.75;6.55;;;22.70;99.90;;;;;;4967969;28;20262;-80
2021/06/17 12:27:02;;;;;;;8.95;6.75;;;22.50;99.90;;;;;;4961957;28;20238;-81
2021/06/17 12:29:31;;;;;;;7.60;6.45;;;22.60;99.90;;;;;;4965555;28;20245;-81
2021/06/17 12:31:58;;;;;;;9.45;6.78;;;23.80;99.90;;;;;;4965853;28;20716;-81
2021/06/17 12:34:29;;;;;;;7.80;6.40;;;24.50;99.90;;;;;;4960012;28;20230;-81
2021/06/17 12:37:01;;;;;;;7.90;5.95;;;23.50;99.90;;;;;;4970782;28;20206;-80
2021/06/17 12:39:28;;;;;;;10.38;5.90;;;22.40;99.90;;;;;;4968025;28;20294;-81
2021/06/17 12:41:55;;;;;;;6.60;5.25;;;22.90;99.90;;;;;;4967139;28;20222;-81
2021/06/17 12:44:32;;;;;;;8.63;5.97;;;24.40;99.90;;;;;;4961709;28;20309;-81